createdAt,value
2019-02-05T00:00:56.791Z,-0.59
2019-02-05T00:03:24.816Z,-0.70
2019-02-05T00:05:52.776Z,-0.76
2019-02-05T00:08:21.370Z,-0.77
2019-02-05T00:10:49.323Z,-0.81
2019-02-05T00:13:18.994Z,-0.78
2019-02-05T00:15:46.932Z,-0.78
2019-02-05T00:18:14.806Z,-0.72
2019-02-05T00:20:42.953Z,-0.70
2019-02-05T00:23:10.898Z,-0.75
2019-02-05T00:25:38.921Z,-0.71
2019-02-05T00:28:07.302Z,-0.70
2019-02-05T00:30:35.304Z,-0.74
2019-02-05T00:33:03.528Z,-0.73
2019-02-05T00:35:31.386Z,-0.78
2019-02-05T00:37:59.389Z,-0.80
2019-02-05T00:40:27.338Z,-0.79
2019-02-05T00:42:55.377Z,-0.77
2019-02-05T00:45:23.585Z,-0.85
2019-02-05T00:47:51.452Z,-0.84
2019-02-05T00:50:19.753Z,-0.84
2019-02-05T00:52:47.901Z,-0.91
2019-02-05T00:55:16.065Z,-0.98
2019-02-05T00:57:44.671Z,-0.97
2019-02-05T01:00:24.261Z,-1.09
2019-02-05T01:02:52.287Z,-1.08
2019-02-05T01:05:20.477Z,-1.03
2019-02-05T01:07:48.721Z,-1.02
2019-02-05T01:10:17.195Z,-1.05
2019-02-05T01:12:45.203Z,-1.05
2019-02-05T01:15:15.013Z,-1.05
2019-02-05T01:17:42.971Z,-1.09
2019-02-05T01:20:13.529Z,-1.13
2019-02-05T01:22:41.491Z,-1.20
2019-02-05T01:25:09.629Z,-1.22
2019-02-05T01:27:37.592Z,-1.35
2019-02-05T01:30:06.925Z,-1.48
2019-02-05T01:32:34.814Z,-1.55
2019-02-05T01:35:04.110Z,-1.55
2019-02-05T01:37:32.050Z,-1.58
2019-02-05T01:39:59.897Z,-1.48
2019-02-05T01:42:27.937Z,-1.43
2019-02-05T01:44:56.291Z,-1.38
2019-02-05T01:47:24.252Z,-1.32
2019-02-05T01:49:52.263Z,-1.28
2019-02-05T01:52:20.286Z,-1.24
2019-02-05T01:54:48.115Z,-1.21
2019-02-05T01:57:15.990Z,-1.27
2019-02-05T01:59:43.819Z,-1.33
2019-02-05T02:02:12.211Z,-1.44
2019-02-05T02:04:39.962Z,-1.49
2019-02-05T02:07:08.494Z,-1.50
2019-02-05T02:09:38.924Z,-1.53
2019-02-05T02:12:06.999Z,-1.61
2019-02-05T02:14:34.927Z,-1.67
2019-02-05T02:17:03.000Z,-1.74
2019-02-05T02:19:32.879Z,-1.93
2019-02-05T02:22:00.785Z,-1.86
2019-02-05T02:24:28.736Z,-1.90
2019-02-05T02:26:56.791Z,-1.86
2019-02-05T02:29:24.769Z,-1.91
2019-02-05T02:31:52.792Z,-1.93
2019-02-05T02:34:20.615Z,-1.94
2019-02-05T02:36:48.465Z,-1.95
2019-02-05T02:39:16.288Z,-1.90
2019-02-05T02:41:44.245Z,-1.84
2019-02-05T02:44:12.073Z,-1.81
2019-02-05T02:46:39.903Z,-1.78
2019-02-05T02:49:07.874Z,-1.74
2019-02-05T02:51:36.180Z,-1.69
2019-02-05T02:54:04.357Z,-1.65
2019-02-05T02:56:32.370Z,-1.61
2019-02-05T02:59:00.384Z,-1.58
2019-02-05T03:01:28.319Z,-1.55
2019-02-05T03:03:56.115Z,-1.54
2019-02-05T03:06:23.874Z,-1.53
2019-02-05T03:08:51.768Z,-1.55
2019-02-05T03:11:19.733Z,-1.58
2019-02-05T03:13:47.720Z,-1.61
2019-02-05T03:16:15.580Z,-1.66
2019-02-05T03:18:44.032Z,-1.70
2019-02-05T03:21:11.787Z,-1.73
2019-02-05T03:23:39.523Z,-1.78
2019-02-05T03:26:07.578Z,-1.83
2019-02-05T03:28:35.522Z,-1.85
2019-02-05T03:31:03.890Z,-1.87
2019-02-05T03:33:31.743Z,-1.99
2019-02-05T03:35:59.857Z,-2.03
2019-02-05T03:38:27.728Z,-2.14
2019-02-05T03:41:03.971Z,-2.20
2019-02-05T03:43:32.729Z,-2.16
2019-02-05T03:46:02.662Z,-2.14
2019-02-05T03:48:32.567Z,-2.10
2019-02-05T03:51:27.582Z,-2.12
2019-02-05T03:54:06.440Z,-2.13
2019-02-05T03:57:04.301Z,-2.28
2019-02-05T04:00:07.963Z,-2.59
2019-02-05T04:02:53.094Z,-2.70
2019-02-05T04:06:13.639Z,-2.58
2019-02-05T04:09:05.023Z,-2.69
2019-02-05T04:12:01.501Z,-2.81
2019-02-05T04:14:49.062Z,-2.86
2019-02-05T04:18:06.271Z,-2.74
2019-02-05T04:21:14.249Z,-2.68
2019-02-05T04:24:25.164Z,-2.66
2019-02-05T04:27:43.388Z,-2.61
2019-02-05T04:30:44.645Z,-2.59
2019-02-05T04:33:35.022Z,-2.74
2019-02-05T04:36:43.338Z,-2.63
2019-02-05T04:39:52.925Z,-2.56
2019-02-05T04:42:59.811Z,-2.54
2019-02-05T04:46:00.605Z,-2.50
2019-02-05T04:49:00.667Z,-2.60
2019-02-05T04:52:06.015Z,-2.83
2019-02-05T04:55:33.769Z,-2.99
2019-02-05T04:58:12.422Z,-3.02
2019-02-05T05:01:04.380Z,-3.16
2019-02-05T05:04:12.650Z,-3.17
2019-02-05T05:07:16.766Z,-3.25
2019-02-05T05:09:59.036Z,-3.44
2019-02-05T05:12:28.269Z,-3.34
2019-02-05T05:14:56.364Z,-3.23
2019-02-05T05:17:24.099Z,-3.17
2019-02-05T05:19:52.393Z,-3.08
2019-02-05T05:22:20.416Z,-3.09
2019-02-05T05:24:48.873Z,-3.15
2019-02-05T05:27:19.014Z,-3.14
2019-02-05T05:29:47.669Z,-3.10
2019-02-05T05:32:16.542Z,-3.20
2019-02-05T05:34:44.574Z,-3.27
2019-02-05T05:37:11.037Z,-3.26
2019-02-05T05:39:38.975Z,-3.22
2019-02-05T05:42:06.833Z,-3.30
2019-02-05T05:44:35.568Z,-3.36
2019-02-05T05:47:04.463Z,-3.31
2019-02-05T05:49:32.764Z,-3.30
2019-02-05T05:52:00.642Z,-3.27
2019-02-05T05:54:28.732Z,-3.26
2019-02-05T05:56:56.659Z,-3.24
2019-02-05T05:59:24.523Z,-3.24
2019-02-05T06:01:52.497Z,-3.18
2019-02-05T06:04:20.760Z,-3.11
2019-02-05T06:06:48.528Z,-3.10
2019-02-05T06:09:16.449Z,-3.08
2019-02-05T06:11:44.392Z,-3.06
2019-02-05T06:14:12.426Z,-3.01
2019-02-05T06:16:40.277Z,-3.12
2019-02-05T06:19:08.731Z,-3.11
2019-02-05T06:21:36.662Z,-3.04
2019-02-05T06:24:05.080Z,-3.00
2019-02-05T06:26:33.184Z,-2.90
2019-02-05T06:29:01.168Z,-2.87
2019-02-05T06:31:29.014Z,-2.83
2019-02-05T06:33:56.938Z,-2.80
2019-02-05T06:36:24.660Z,-2.76
2019-02-05T06:38:52.675Z,-2.75
2019-02-05T06:41:20.801Z,-2.72
2019-02-05T06:43:48.794Z,-2.71
2019-02-05T06:46:16.604Z,-2.71
2019-02-05T06:48:44.588Z,-2.68
2019-02-05T06:51:12.819Z,-2.69
2019-02-05T06:53:40.631Z,-2.66
2019-02-05T06:56:08.527Z,-2.63
2019-02-05T06:58:46.146Z,-2.63
2019-02-05T07:01:06.700Z,-2.58
2019-02-05T07:03:34.793Z,-2.61
2019-02-05T07:06:02.728Z,-2.62
2019-02-05T07:08:31.200Z,-2.66
2019-02-05T07:10:59.219Z,-2.69
2019-02-05T07:13:27.173Z,-2.72
2019-02-05T07:15:55.264Z,-2.72
2019-02-05T07:18:23.035Z,-2.78
2019-02-05T07:20:50.876Z,-2.86
2019-02-05T07:23:18.705Z,-3.04
2019-02-05T07:25:47.637Z,-3.04
2019-02-05T07:28:15.466Z,-3.05
2019-02-05T07:30:43.326Z,-3.07
2019-02-05T07:33:11.506Z,-3.05
2019-02-05T07:35:39.737Z,-2.99
2019-02-05T07:38:07.676Z,-2.95
2019-02-05T07:40:35.703Z,-2.89
2019-02-05T07:43:03.990Z,-2.90
2019-02-05T07:45:32.068Z,-2.77
2019-02-05T07:47:59.855Z,-2.72
2019-02-05T07:50:27.806Z,-2.66
2019-02-05T07:52:55.854Z,-2.62
2019-02-05T07:55:24.369Z,-2.51
2019-02-05T07:57:52.313Z,-2.41
2019-02-05T08:00:22.884Z,-2.34
2019-02-05T08:02:50.649Z,-2.29
2019-02-05T08:05:20.906Z,-2.17
2019-02-05T08:07:49.583Z,-2.00
2019-02-05T08:10:19.223Z,-1.82
2019-02-05T08:12:47.643Z,-1.64
2019-02-05T08:15:17.643Z,-1.61
2019-02-05T08:17:45.737Z,-1.57
2019-02-05T08:20:13.695Z,-1.55
2019-02-05T08:22:41.646Z,-1.48
2019-02-05T08:25:11.189Z,-1.51
2019-02-05T08:27:39.118Z,-1.55
2019-02-05T08:30:17.634Z,-1.50
2019-02-05T08:32:45.501Z,-1.52
2019-02-05T08:35:15.052Z,-1.55
2019-02-05T08:37:42.987Z,-1.59
2019-02-05T08:40:13.749Z,-1.63
2019-02-05T08:42:42.184Z,-1.61
2019-02-05T08:45:14.273Z,-1.65
2019-02-05T08:47:42.197Z,-1.67
2019-02-05T08:50:12.786Z,-1.83
2019-02-05T08:52:40.752Z,-1.78
2019-02-05T08:55:10.021Z,-1.77
2019-02-05T08:57:49.857Z,-1.75
2019-02-05T09:00:25.914Z,-1.79
2019-02-05T09:02:54.360Z,-1.69
2019-02-05T09:05:22.416Z,-1.59
2019-02-05T09:07:50.395Z,-1.49
2019-02-05T09:10:21.294Z,-1.43
2019-02-05T09:12:49.986Z,-1.28
2019-02-05T09:15:28.867Z,-1.19
2019-02-05T09:17:47.672Z,-1.14
2019-02-05T09:20:16.354Z,-1.03
2019-02-05T09:22:44.501Z,-0.93
2019-02-05T09:25:12.714Z,-0.76
2019-02-05T09:27:40.577Z,-0.60
2019-02-05T09:30:14.135Z,-0.44
2019-02-05T09:32:42.090Z,-0.29
2019-02-05T09:35:10.520Z,-0.17
2019-02-05T09:37:38.385Z,-0.15
2019-02-05T09:40:08.937Z,-0.10
2019-02-05T09:42:36.799Z,-0.06
2019-02-05T09:45:05.630Z,0.08
2019-02-05T09:47:33.626Z,0.19
2019-02-05T09:50:01.474Z,0.25
2019-02-05T09:52:29.784Z,0.30
2019-02-05T09:54:57.661Z,0.38
2019-02-05T09:57:25.723Z,0.45
2019-02-05T09:59:53.534Z,0.49
2019-02-05T10:02:21.429Z,0.54
2019-02-05T10:04:49.229Z,0.62
2019-02-05T10:07:17.078Z,0.65
2019-02-05T10:09:45.505Z,0.65
2019-02-05T10:12:13.728Z,0.66
2019-02-05T10:14:42.481Z,0.73
2019-02-05T10:17:10.502Z,0.77
2019-02-05T10:19:38.241Z,0.81
2019-02-05T10:22:06.216Z,0.87
2019-02-05T10:24:34.142Z,0.90
2019-02-05T10:27:01.949Z,0.98
2019-02-05T10:29:29.783Z,1.12
2019-02-05T10:31:57.680Z,1.17
2019-02-05T10:34:33.856Z,1.27
2019-02-05T10:36:55.385Z,1.35
2019-02-05T10:39:23.302Z,1.42
2019-02-05T10:41:51.372Z,1.51
2019-02-05T10:44:20.384Z,1.63
2019-02-05T10:46:48.228Z,1.73
2019-02-05T10:49:16.107Z,1.82
2019-02-05T10:51:44.115Z,1.95
2019-02-05T10:54:11.896Z,2.10
2019-02-05T10:56:39.841Z,2.24
2019-02-05T10:59:07.808Z,2.37
2019-02-05T11:01:36.144Z,2.49
2019-02-05T11:04:04.113Z,2.64
2019-02-05T11:06:32.144Z,2.78
2019-02-05T11:08:59.932Z,2.90
2019-02-05T11:11:27.808Z,3.04
2019-02-05T11:13:55.734Z,3.19
2019-02-05T11:16:23.493Z,3.31
2019-02-05T11:18:51.311Z,3.44
2019-02-05T11:21:19.288Z,3.57
2019-02-05T11:23:47.040Z,3.75
2019-02-05T11:26:15.243Z,3.93
2019-02-05T11:28:43.074Z,4.04
2019-02-05T11:31:10.972Z,4.20
2019-02-05T11:33:38.838Z,4.30
2019-02-05T11:36:06.877Z,4.36
2019-02-05T11:38:34.632Z,4.53
2019-02-05T11:41:02.571Z,4.63
2019-02-05T11:43:30.409Z,4.75
2019-02-05T11:45:58.455Z,4.81
2019-02-05T11:48:26.511Z,4.97
2019-02-05T11:50:54.377Z,5.09
2019-02-05T11:53:22.275Z,5.10
2019-02-05T11:55:50.266Z,5.17
2019-02-05T11:58:18.001Z,5.29
2019-02-05T12:00:50.700Z,5.41
2019-02-05T12:03:19.429Z,5.61
2019-02-05T12:05:47.487Z,5.58
2019-02-05T12:08:18.476Z,5.69
2019-02-05T12:10:45.681Z,5.84
2019-02-05T12:13:13.599Z,5.94
2019-02-05T12:15:41.753Z,6.13
2019-02-05T12:18:09.777Z,6.26
2019-02-05T12:20:37.729Z,6.38
2019-02-05T12:23:05.937Z,6.39
2019-02-05T12:25:34.512Z,6.39
2019-02-05T12:28:02.582Z,6.45
2019-02-05T12:30:43.812Z,6.40
2019-02-05T12:33:02.779Z,6.39
2019-02-05T12:35:30.817Z,6.45
2019-02-05T12:37:58.767Z,6.48
2019-02-05T12:40:26.893Z,6.54
2019-02-05T12:42:54.864Z,6.65
2019-02-05T12:45:25.065Z,6.74
2019-02-05T12:47:52.993Z,6.83
2019-02-05T12:50:25.274Z,6.88
2019-02-05T12:52:53.507Z,6.86
2019-02-05T12:55:22.121Z,7.02
2019-02-05T12:57:50.157Z,7.14
2019-02-05T13:00:24.047Z,7.06
2019-02-05T13:02:54.415Z,7.08
2019-02-05T13:05:22.112Z,7.14
2019-02-05T13:07:50.084Z,7.34
2019-02-05T13:10:21.016Z,7.42
2019-02-05T13:12:48.971Z,7.47
2019-02-05T13:15:16.878Z,7.55
2019-02-05T13:17:44.767Z,7.49
2019-02-05T13:20:21.218Z,7.28
2019-02-05T13:22:49.702Z,7.32
2019-02-05T13:25:20.270Z,7.21
2019-02-05T13:27:48.420Z,6.89
2019-02-05T13:30:20.294Z,6.69
2019-02-05T13:32:48.548Z,6.56
2019-02-05T13:35:17.765Z,6.37
2019-02-05T13:37:45.761Z,6.28
2019-02-05T13:40:16.156Z,6.33
2019-02-05T13:42:44.143Z,6.42
2019-02-05T13:45:14.370Z,6.58
2019-02-05T13:47:42.362Z,6.99
2019-02-05T13:50:14.027Z,7.24
2019-02-05T13:52:42.052Z,7.35
2019-02-05T13:55:11.396Z,7.29
2019-02-05T13:57:39.582Z,7.43
2019-02-05T14:00:12.883Z,7.63
2019-02-05T14:02:41.079Z,7.66
2019-02-05T14:05:09.583Z,7.63
2019-02-05T14:07:37.673Z,7.50
2019-02-05T14:10:09.239Z,7.37
2019-02-05T14:12:37.136Z,7.22
2019-02-05T14:15:06.222Z,7.04
2019-02-05T14:17:34.185Z,6.84
2019-02-05T14:20:02.212Z,6.69
2019-02-05T14:22:29.995Z,6.55
2019-02-05T14:24:58.401Z,6.43
2019-02-05T14:27:26.322Z,6.31
2019-02-05T14:29:54.109Z,6.21
2019-02-05T14:32:21.962Z,6.13
2019-02-05T14:34:49.824Z,6.00
2019-02-05T14:37:17.868Z,5.85
2019-02-05T14:39:45.630Z,5.70
2019-02-05T14:42:14.886Z,5.58
2019-02-05T14:44:43.382Z,5.58
2019-02-05T14:47:11.255Z,5.59
2019-02-05T14:49:39.119Z,5.57
2019-02-05T14:52:07.008Z,5.56
2019-02-05T14:54:34.900Z,5.53
2019-02-05T14:57:02.849Z,5.55
2019-02-05T14:59:32.117Z,5.51
2019-02-05T15:02:00.126Z,5.53
2019-02-05T15:04:28.792Z,5.62
2019-02-05T15:06:56.756Z,5.58
2019-02-05T15:09:24.637Z,5.52
2019-02-05T15:11:57.369Z,5.45
2019-02-05T15:14:25.360Z,5.41
2019-02-05T15:16:53.115Z,5.37
2019-02-05T15:19:21.160Z,5.32
2019-02-05T15:21:49.014Z,5.29
2019-02-05T15:24:17.098Z,5.23
2019-02-05T15:26:45.006Z,5.19
2019-02-05T15:29:12.796Z,5.17
2019-02-05T15:31:40.767Z,5.12
2019-02-05T15:34:18.409Z,5.11
2019-02-05T15:36:48.525Z,5.06
2019-02-05T15:39:16.684Z,5.02
2019-02-05T15:41:44.894Z,4.98
2019-02-05T15:44:13.354Z,4.95
2019-02-05T15:46:42.024Z,4.92
2019-02-05T15:49:10.051Z,4.91
2019-02-05T15:51:37.936Z,4.88
2019-02-05T15:54:06.065Z,4.85
2019-02-05T15:56:34.105Z,4.81
2019-02-05T15:59:02.089Z,4.77
2019-02-05T16:01:30.115Z,4.72
2019-02-05T16:03:58.199Z,4.72
2019-02-05T16:06:27.669Z,4.70
2019-02-05T16:08:55.549Z,4.69
2019-02-05T16:11:23.403Z,4.68
2019-02-05T16:13:56.417Z,4.66
2019-02-05T16:16:24.597Z,4.65
2019-02-05T16:18:53.453Z,4.62
2019-02-05T16:21:26.699Z,4.61
2019-02-05T16:23:54.666Z,4.56
2019-02-05T16:26:22.647Z,4.54
2019-02-05T16:28:50.629Z,4.49
2019-02-05T16:31:18.841Z,4.46
2019-02-05T16:33:46.716Z,4.44
2019-02-05T16:36:15.452Z,4.40
2019-02-05T16:38:43.408Z,4.39
2019-02-05T16:41:11.423Z,4.34
2019-02-05T16:43:39.190Z,4.33
2019-02-05T16:46:07.089Z,4.38
2019-02-05T16:48:35.322Z,4.36
2019-02-05T16:51:03.500Z,4.32
2019-02-05T16:53:31.399Z,4.27
2019-02-05T16:56:00.991Z,4.17
2019-02-05T16:58:29.091Z,4.11
2019-02-05T17:00:56.843Z,4.09
2019-02-05T17:03:24.674Z,4.11
2019-02-05T17:05:52.946Z,4.11
2019-02-05T17:08:20.814Z,4.09
2019-02-05T17:10:50.621Z,4.11
2019-02-05T17:13:18.607Z,4.10
2019-02-05T17:15:49.170Z,4.13
2019-02-05T17:18:23.653Z,4.14
2019-02-05T17:20:47.608Z,4.17
2019-02-05T17:23:15.635Z,4.14
2019-02-05T17:25:43.667Z,4.15
2019-02-05T17:28:11.646Z,4.08
2019-02-05T17:30:39.725Z,4.05
2019-02-05T17:33:07.655Z,3.93
2019-02-05T17:35:35.980Z,3.99
2019-02-05T17:38:06.635Z,3.92
2019-02-05T17:40:34.858Z,3.98
2019-02-05T17:43:02.705Z,3.65
2019-02-05T17:45:35.772Z,3.77
2019-02-05T17:48:06.844Z,3.74
2019-02-05T17:50:34.775Z,3.81
2019-02-05T17:53:03.464Z,3.84
2019-02-05T17:55:31.330Z,3.74
2019-02-05T17:57:59.410Z,3.70
2019-02-05T18:00:36.763Z,3.74
2019-02-05T18:03:04.923Z,3.70
2019-02-05T18:05:34.879Z,3.67
2019-02-05T18:08:02.734Z,3.70
2019-02-05T18:10:30.645Z,3.73
2019-02-05T18:12:58.422Z,3.77
2019-02-05T18:15:28.949Z,3.76
2019-02-05T18:18:01.855Z,3.75
2019-02-05T18:20:29.906Z,3.78
2019-02-05T18:22:57.811Z,3.76
2019-02-05T18:25:25.755Z,3.74
2019-02-05T18:27:53.763Z,3.63
2019-02-05T18:30:24.401Z,3.65
2019-02-05T18:33:02.798Z,3.63
2019-02-05T18:35:22.406Z,3.61
2019-02-05T18:37:51.007Z,3.52
2019-02-05T18:40:20.361Z,3.58
2019-02-05T18:42:48.451Z,3.64
2019-02-05T18:45:16.842Z,3.59
2019-02-05T18:47:46.141Z,3.65
2019-02-05T18:50:19.915Z,3.63
2019-02-05T18:52:47.993Z,3.60
2019-02-05T18:55:15.957Z,3.57
2019-02-05T18:57:44.104Z,3.56
2019-02-05T19:00:15.949Z,3.54
2019-02-05T19:02:43.843Z,3.52
2019-02-05T19:05:12.220Z,3.52
2019-02-05T19:07:41.298Z,3.54
2019-02-05T19:10:12.066Z,3.58
2019-02-05T19:12:39.932Z,3.50
2019-02-05T19:15:15.685Z,3.49
2019-02-05T19:17:43.688Z,3.53
2019-02-05T19:20:14.758Z,3.52
2019-02-05T19:22:42.918Z,3.48
2019-02-05T19:25:20.809Z,3.40
2019-02-05T19:27:49.182Z,3.36
2019-02-05T19:30:18.389Z,3.36
2019-02-05T19:32:46.444Z,3.32
2019-02-05T19:35:14.798Z,3.41
2019-02-05T19:37:42.721Z,3.44
2019-02-05T19:40:10.886Z,3.45
2019-02-05T19:42:38.817Z,3.49
2019-02-05T19:45:25.286Z,3.37
2019-02-05T19:47:53.830Z,3.32
2019-02-05T19:50:21.583Z,3.51
2019-02-05T19:52:49.499Z,3.48
2019-02-05T19:55:17.507Z,3.44
2019-02-05T19:57:45.920Z,3.50
2019-02-05T20:00:14.637Z,3.42
2019-02-05T20:02:42.649Z,3.42
2019-02-05T20:05:10.639Z,3.44
2019-02-05T20:07:38.668Z,3.43
2019-02-05T20:10:08.006Z,3.38
2019-02-05T20:12:35.924Z,3.42
2019-02-05T20:15:05.618Z,3.49
2019-02-05T20:17:33.398Z,3.56
2019-02-05T20:20:01.217Z,3.53
2019-02-05T20:22:39.614Z,3.52
2019-02-05T20:25:08.765Z,3.50
2019-02-05T20:27:36.710Z,3.54
2019-02-05T20:30:05.678Z,3.52
2019-02-05T20:32:34.147Z,3.53
2019-02-05T20:35:02.123Z,3.51
2019-02-05T20:37:30.196Z,3.50
2019-02-05T20:39:57.999Z,3.43
2019-02-05T20:42:26.276Z,3.42
2019-02-05T20:44:54.822Z,3.42
2019-02-05T20:47:22.684Z,3.32
2019-02-05T20:49:50.658Z,3.43
2019-02-05T20:52:18.559Z,3.37
2019-02-05T20:54:46.388Z,3.36
2019-02-05T20:57:14.441Z,3.41
2019-02-05T20:59:42.501Z,3.48
2019-02-05T21:02:10.915Z,3.53
2019-02-05T21:04:48.474Z,3.42
2019-02-05T21:07:11.790Z,3.38
2019-02-05T21:09:42.177Z,3.37
2019-02-05T21:12:10.089Z,3.40
2019-02-05T21:14:37.961Z,3.43
2019-02-05T21:17:05.902Z,3.43
2019-02-05T21:19:33.950Z,3.40
2019-02-05T21:22:02.017Z,3.44
2019-02-05T21:24:32.358Z,3.50
2019-02-05T21:27:00.221Z,3.51
2019-02-05T21:29:28.278Z,3.52
2019-02-05T21:31:56.211Z,3.47
2019-02-05T21:34:24.745Z,3.47
2019-02-05T21:36:52.923Z,3.49
2019-02-05T21:39:20.754Z,3.46
2019-02-05T21:41:48.532Z,3.46
2019-02-05T21:44:16.398Z,3.49
2019-02-05T21:46:44.940Z,3.51
2019-02-05T21:49:12.831Z,3.51
2019-02-05T21:51:42.636Z,3.54
2019-02-05T21:54:10.750Z,3.55
2019-02-05T21:56:38.628Z,3.54
2019-02-05T21:59:07.011Z,3.57
2019-02-05T22:01:34.883Z,3.58
2019-02-05T22:04:03.102Z,3.58
2019-02-05T22:06:31.194Z,3.62
2019-02-05T22:08:59.194Z,3.66
2019-02-05T22:11:27.286Z,3.57
2019-02-05T22:13:55.209Z,3.54
2019-02-05T22:16:23.155Z,3.56
2019-02-05T22:18:51.155Z,3.56
2019-02-05T22:21:19.921Z,3.58
2019-02-05T22:23:47.852Z,3.60
2019-02-05T22:26:15.715Z,3.59
2019-02-05T22:28:43.606Z,3.56
2019-02-05T22:31:12.026Z,3.56
2019-02-05T22:33:40.022Z,3.57
2019-02-05T22:36:08.359Z,3.52
2019-02-05T22:38:36.935Z,3.52
2019-02-05T22:41:04.976Z,3.53
2019-02-05T22:43:32.908Z,3.51
2019-02-05T22:46:00.911Z,3.53
2019-02-05T22:48:29.156Z,3.51
2019-02-05T22:50:57.246Z,3.53
2019-02-05T22:53:25.425Z,3.53
2019-02-05T22:55:54.062Z,3.56
2019-02-05T22:58:25.442Z,3.52
2019-02-05T23:01:43.709Z,3.52
2019-02-05T23:04:50.537Z,3.51
2019-02-05T23:07:14.758Z,3.51
2019-02-05T23:10:12.237Z,3.57
2019-02-05T23:12:56.148Z,3.58
2019-02-05T23:15:28.831Z,3.55
2019-02-05T23:17:55.792Z,3.53
2019-02-05T23:20:23.945Z,3.54
2019-02-05T23:22:51.903Z,3.57
2019-02-05T23:25:19.919Z,3.55
2019-02-05T23:27:48.201Z,3.53
2019-02-05T23:30:19.428Z,3.57
2019-02-05T23:32:47.360Z,3.56
2019-02-05T23:35:15.516Z,3.53
2019-02-05T23:37:44.050Z,3.55
2019-02-05T23:40:12.843Z,3.62
2019-02-05T23:42:40.780Z,3.60
2019-02-05T23:45:09.206Z,3.57
2019-02-05T23:47:37.132Z,3.57
2019-02-05T23:50:06.663Z,3.59
2019-02-05T23:52:34.397Z,3.55
2019-02-05T23:55:03.045Z,3.56
2019-02-05T23:57:30.909Z,3.54
